sensor_id;sensor_type;location;lat;lon;timestamp;temperature;humidity
19359;DHT22;9815;52.334;20.890;2023-04-16T00:00:49;8.60;99.90
19359;DHT22;9815;52.334;20.890;2023-04-16T00:03:17;8.70;99.90
19359;DHT22;9815;52.334;20.890;2023-04-16T00:05:45;8.70;99.90
19359;DHT22;9815;52.334;20.890;2023-04-16T00:08:13;8.60;99.90
19359;DHT22;9815;52.334;20.890;2023-04-16T00:10:42;8.60;99.90
19359;DHT22;9815;52.334;20.890;2023-04-16T00:13:11;8.60;99.90
19359;DHT22;9815;52.334;20.890;2023-04-16T00:15:39;8.60;99.90
19359;DHT22;9815;52.334;20.890;2023-04-16T00:18:07;8.60;99.90
19359;DHT22;9815;52.334;20.890;2023-04-16T00:20:35;8.60;99.90
19359;DHT22;9815;52.334;20.890;2023-04-16T00:23:03;8.60;99.90
19359;DHT22;9815;52.334;20.890;2023-04-16T00:25:31;8.50;99.90
19359;DHT22;9815;52.334;20.890;2023-04-16T00:28:00;8.50;99.90
19359;DHT22;9815;52.334;20.890;2023-04-16T00:30:28;8.50;99.90
19359;DHT22;9815;52.334;20.890;2023-04-16T00:32:56;8.60;99.90
19359;DHT22;9815;52.334;20.890;2023-04-16T00:35:25;8.50;99.90
19359;DHT22;9815;52.334;20.890;2023-04-16T00:37:54;8.50;99.90
19359;DHT22;9815;52.334;20.890;2023-04-16T00:40:22;8.50;99.90
19359;DHT22;9815;52.334;20.890;2023-04-16T00:42:50;8.50;99.90
19359;DHT22;9815;52.334;20.890;2023-04-16T00:45:20;8.50;99.90
19359;DHT22;9815;52.334;20.890;2023-04-16T00:47:48;8.50;99.90
19359;DHT22;9815;52.334;20.890;2023-04-16T00:50:16;8.50;99.90
19359;DHT22;9815;52.334;20.890;2023-04-16T00:52:46;8.50;99.90
19359;DHT22;9815;52.334;20.890;2023-04-16T00:55:14;8.50;99.90
19359;DHT22;9815;52.334;20.890;2023-04-16T00:57:44;8.50;99.90
19359;DHT22;9815;52.334;20.890;2023-04-16T01:00:13;8.50;99.90
19359;DHT22;9815;52.334;20.890;2023-04-16T01:02:43;8.50;99.90
19359;DHT22;9815;52.334;20.890;2023-04-16T01:05:11;8.40;99.90
19359;DHT22;9815;52.334;20.890;2023-04-16T01:07:39;8.40;99.90
19359;DHT22;9815;52.334;20.890;2023-04-16T01:10:08;8.40;99.90
19359;DHT22;9815;52.334;20.890;2023-04-16T01:12:36;8.40;99.90
19359;DHT22;9815;52.334;20.890;2023-04-16T01:15:05;8.40;99.90
19359;DHT22;9815;52.334;20.890;2023-04-16T01:17:33;8.30;99.90
19359;DHT22;9815;52.334;20.890;2023-04-16T01:20:03;8.30;99.90
19359;DHT22;9815;52.334;20.890;2023-04-16T01:22:32;8.30;99.90
19359;DHT22;9815;52.334;20.890;2023-04-16T01:25:00;8.40;99.90
19359;DHT22;9815;52.334;20.890;2023-04-16T01:27:28;8.30;99.90
19359;DHT22;9815;52.334;20.890;2023-04-16T01:29:56;8.40;99.90
19359;DHT22;9815;52.334;20.890;2023-04-16T01:32:37;8.30;99.90
19359;DHT22;9815;52.334;20.890;2023-04-16T01:35:05;8.30;99.90
19359;DHT22;9815;52.334;20.890;2023-04-16T01:37:35;8.20;99.90
19359;DHT22;9815;52.334;20.890;2023-04-16T01:40:03;8.20;99.90
19359;DHT22;9815;52.334;20.890;2023-04-16T01:42:32;8.20;99.90
19359;DHT22;9815;52.334;20.890;2023-04-16T01:45:00;8.20;99.90
19359;DHT22;9815;52.334;20.890;2023-04-16T01:47:28;8.10;99.90
19359;DHT22;9815;52.334;20.890;2023-04-16T01:49:56;8.20;99.90
19359;DHT22;9815;52.334;20.890;2023-04-16T01:52:24;8.20;99.90
19359;DHT22;9815;52.334;20.890;2023-04-16T01:54:54;8.20;99.90
19359;DHT22;9815;52.334;20.890;2023-04-16T01:57:22;8.20;99.90
19359;DHT22;9815;52.334;20.890;2023-04-16T01:59:51;8.20;99.90
19359;DHT22;9815;52.334;20.890;2023-04-16T02:02:20;8.20;99.90
19359;DHT22;9815;52.334;20.890;2023-04-16T02:04:54;8.10;99.90
19359;DHT22;9815;52.334;20.890;2023-04-16T02:07:23;8.10;99.90
19359;DHT22;9815;52.334;20.890;2023-04-16T02:09:54;8.10;99.90
19359;DHT22;9815;52.334;20.890;2023-04-16T02:12:23;8.10;99.90
19359;DHT22;9815;52.334;20.890;2023-04-16T02:14:52;8.10;99.90
19359;DHT22;9815;52.334;20.890;2023-04-16T02:17:24;8.10;99.90
19359;DHT22;9815;52.334;20.890;2023-04-16T02:20:05;8.10;99.90
19359;DHT22;9815;52.334;20.890;2023-04-16T02:22:50;8.10;99.90
19359;DHT22;9815;52.334;20.890;2023-04-16T02:25:22;8.00;99.90
19359;DHT22;9815;52.334;20.890;2023-04-16T02:27:53;8.10;99.90
19359;DHT22;9815;52.334;20.890;2023-04-16T02:30:34;8.10;99.90
19359;DHT22;9815;52.334;20.890;2023-04-16T02:33:03;8.10;99.90
19359;DHT22;9815;52.334;20.890;2023-04-16T02:35:35;8.20;99.90
19359;DHT22;9815;52.334;20.890;2023-04-16T02:38:05;8.00;99.90
19359;DHT22;9815;52.334;20.890;2023-04-16T02:40:35;8.10;99.90
19359;DHT22;9815;52.334;20.890;2023-04-16T02:43:03;8.10;99.90
19359;DHT22;9815;52.334;20.890;2023-04-16T02:45:32;8.10;99.90
19359;DHT22;9815;52.334;20.890;2023-04-16T02:48:00;8.00;99.90
19359;DHT22;9815;52.334;20.890;2023-04-16T02:50:28;8.00;99.90
19359;DHT22;9815;52.334;20.890;2023-04-16T02:52:56;8.00;99.90
19359;DHT22;9815;52.334;20.890;2023-04-16T02:55:24;8.10;99.90
19359;DHT22;9815;52.334;20.890;2023-04-16T02:57:54;8.00;99.90
19359;DHT22;9815;52.334;20.890;2023-04-16T03:00:22;8.00;99.90
19359;DHT22;9815;52.334;20.890;2023-04-16T03:02:50;8.00;99.90
19359;DHT22;9815;52.334;20.890;2023-04-16T03:05:18;8.00;99.90
19359;DHT22;9815;52.334;20.890;2023-04-16T03:07:46;8.00;99.90
19359;DHT22;9815;52.334;20.890;2023-04-16T03:10:16;8.00;99.90
19359;DHT22;9815;52.334;20.890;2023-04-16T03:12:44;8.00;99.90
19359;DHT22;9815;52.334;20.890;2023-04-16T03:15:13;8.00;99.90
19359;DHT22;9815;52.334;20.890;2023-04-16T03:17:41;8.00;99.90
19359;DHT22;9815;52.334;20.890;2023-04-16T03:20:10;8.10;99.90
19359;DHT22;9815;52.334;20.890;2023-04-16T03:22:38;8.10;99.90
19359;DHT22;9815;52.334;20.890;2023-04-16T03:25:06;8.10;99.90
19359;DHT22;9815;52.334;20.890;2023-04-16T03:27:35;8.10;99.90
19359;DHT22;9815;52.334;20.890;2023-04-16T03:30:04;8.10;99.90
19359;DHT22;9815;52.334;20.890;2023-04-16T03:32:35;8.10;99.90
19359;DHT22;9815;52.334;20.890;2023-04-16T03:35:05;8.10;99.90
19359;DHT22;9815;52.334;20.890;2023-04-16T03:37:34;8.10;99.90
19359;DHT22;9815;52.334;20.890;2023-04-16T03:40:03;8.10;99.90
19359;DHT22;9815;52.334;20.890;2023-04-16T03:42:33;8.10;99.90
19359;DHT22;9815;52.334;20.890;2023-04-16T03:45:01;8.10;99.90
19359;DHT22;9815;52.334;20.890;2023-04-16T03:47:31;8.00;99.90
19359;DHT22;9815;52.334;20.890;2023-04-16T03:50:04;8.10;99.90
19359;DHT22;9815;52.334;20.890;2023-04-16T03:52:32;8.20;99.90
19359;DHT22;9815;52.334;20.890;2023-04-16T03:55:01;8.10;99.90
19359;DHT22;9815;52.334;20.890;2023-04-16T03:57:30;8.10;99.90
19359;DHT22;9815;52.334;20.890;2023-04-16T04:00:07;8.10;99.90
19359;DHT22;9815;52.334;20.890;2023-04-16T04:02:59;8.20;99.90
19359;DHT22;9815;52.334;20.890;2023-04-16T04:05:29;8.20;99.90
19359;DHT22;9815;52.334;20.890;2023-04-16T04:07:58;8.20;99.90
19359;DHT22;9815;52.334;20.890;2023-04-16T04:10:30;8.20;99.90
19359;DHT22;9815;52.334;20.890;2023-04-16T04:12:59;8.20;99.90
19359;DHT22;9815;52.334;20.890;2023-04-16T04:15:27;8.30;99.90
19359;DHT22;9815;52.334;20.890;2023-04-16T04:17:56;8.20;99.90
19359;DHT22;9815;52.334;20.890;2023-04-16T04:20:24;8.30;99.90
19359;DHT22;9815;52.334;20.890;2023-04-16T04:22:54;8.30;99.90
19359;DHT22;9815;52.334;20.890;2023-04-16T04:25:24;8.30;99.90
19359;DHT22;9815;52.334;20.890;2023-04-16T04:27:52;8.30;99.90
19359;DHT22;9815;52.334;20.890;2023-04-16T04:30:21;8.30;99.90
19359;DHT22;9815;52.334;20.890;2023-04-16T04:32:49;8.30;99.90
19359;DHT22;9815;52.334;20.890;2023-04-16T04:35:17;8.30;99.90
19359;DHT22;9815;52.334;20.890;2023-04-16T04:37:48;8.20;99.90
19359;DHT22;9815;52.334;20.890;2023-04-16T04:40:20;8.20;99.90
19359;DHT22;9815;52.334;20.890;2023-04-16T04:42:48;8.30;99.90
19359;DHT22;9815;52.334;20.890;2023-04-16T04:45:16;8.30;99.90
19359;DHT22;9815;52.334;20.890;2023-04-16T04:47:45;8.40;99.90
19359;DHT22;9815;52.334;20.890;2023-04-16T04:50:13;8.40;99.90
19359;DHT22;9815;52.334;20.890;2023-04-16T04:52:41;8.40;99.90
19359;DHT22;9815;52.334;20.890;2023-04-16T04:55:10;8.40;99.90
19359;DHT22;9815;52.334;20.890;2023-04-16T04:57:41;8.40;99.90
19359;DHT22;9815;52.334;20.890;2023-04-16T05:00:10;8.50;99.90
19359;DHT22;9815;52.334;20.890;2023-04-16T05:02:44;8.60;99.90
19359;DHT22;9815;52.334;20.890;2023-04-16T05:05:13;8.60;99.90
19359;DHT22;9815;52.334;20.890;2023-04-16T05:07:41;8.60;99.90
19359;DHT22;9815;52.334;20.890;2023-04-16T05:10:09;8.70;99.90
19359;DHT22;9815;52.334;20.890;2023-04-16T05:12:37;8.70;99.90
19359;DHT22;9815;52.334;20.890;2023-04-16T05:15:08;8.80;99.90
19359;DHT22;9815;52.334;20.890;2023-04-16T05:17:36;8.80;99.90
19359;DHT22;9815;52.334;20.890;2023-04-16T05:20:06;8.80;99.90
19359;DHT22;9815;52.334;20.890;2023-04-16T05:22:34;8.90;99.90
19359;DHT22;9815;52.334;20.890;2023-04-16T05:25:02;9.00;99.90
19359;DHT22;9815;52.334;20.890;2023-04-16T05:27:30;9.00;99.90
19359;DHT22;9815;52.334;20.890;2023-04-16T05:29:58;9.00;99.90
19359;DHT22;9815;52.334;20.890;2023-04-16T05:32:27;9.00;99.90
19359;DHT22;9815;52.334;20.890;2023-04-16T05:34:55;9.00;99.90
19359;DHT22;9815;52.334;20.890;2023-04-16T05:37:24;9.10;99.90
19359;DHT22;9815;52.334;20.890;2023-04-16T05:39:52;9.10;99.90
19359;DHT22;9815;52.334;20.890;2023-04-16T05:42:20;9.00;99.90
19359;DHT22;9815;52.334;20.890;2023-04-16T05:44:50;9.00;99.90
19359;DHT22;9815;52.334;20.890;2023-04-16T05:47:18;9.00;99.90
19359;DHT22;9815;52.334;20.890;2023-04-16T05:49:48;9.10;99.90
19359;DHT22;9815;52.334;20.890;2023-04-16T05:52:16;9.00;99.90
19359;DHT22;9815;52.334;20.890;2023-04-16T05:54:44;9.00;99.90
19359;DHT22;9815;52.334;20.890;2023-04-16T05:57:12;8.90;99.90
19359;DHT22;9815;52.334;20.890;2023-04-16T05:59:40;8.90;99.90
19359;DHT22;9815;52.334;20.890;2023-04-16T06:02:08;8.90;99.90
19359;DHT22;9815;52.334;20.890;2023-04-16T06:04:36;8.90;99.90
19359;DHT22;9815;52.334;20.890;2023-04-16T06:07:06;8.90;99.90
19359;DHT22;9815;52.334;20.890;2023-04-16T06:09:34;8.90;99.90
19359;DHT22;9815;52.334;20.890;2023-04-16T06:12:03;8.90;99.90
19359;DHT22;9815;52.334;20.890;2023-04-16T06:14:31;8.90;99.90
19359;DHT22;9815;52.334;20.890;2023-04-16T06:16:59;8.90;99.90
19359;DHT22;9815;52.334;20.890;2023-04-16T06:19:27;8.90;99.90
19359;DHT22;9815;52.334;20.890;2023-04-16T06:21:55;9.00;99.90
19359;DHT22;9815;52.334;20.890;2023-04-16T06:24:25;8.90;99.90
19359;DHT22;9815;52.334;20.890;2023-04-16T06:26:53;9.00;99.90
19359;DHT22;9815;52.334;20.890;2023-04-16T06:29:21;9.10;99.90
19359;DHT22;9815;52.334;20.890;2023-04-16T06:32:06;9.10;99.90
19359;DHT22;9815;52.334;20.890;2023-04-16T06:34:34;9.10;99.90
19359;DHT22;9815;52.334;20.890;2023-04-16T06:37:02;9.20;99.90
19359;DHT22;9815;52.334;20.890;2023-04-16T06:39:32;9.30;99.90
19359;DHT22;9815;52.334;20.890;2023-04-16T06:42:00;9.30;99.90
19359;DHT22;9815;52.334;20.890;2023-04-16T06:44:28;9.40;99.90
19359;DHT22;9815;52.334;20.890;2023-04-16T06:46:56;9.40;99.90
19359;DHT22;9815;52.334;20.890;2023-04-16T06:49:24;9.40;99.90
19359;DHT22;9815;52.334;20.890;2023-04-16T06:51:52;9.50;99.90
19359;DHT22;9815;52.334;20.890;2023-04-16T06:54:20;9.60;99.90
19359;DHT22;9815;52.334;20.890;2023-04-16T06:56:50;9.80;99.90
19359;DHT22;9815;52.334;20.890;2023-04-16T06:59:18;9.80;99.90
19359;DHT22;9815;52.334;20.890;2023-04-16T07:01:46;9.80;99.90
19359;DHT22;9815;52.334;20.890;2023-04-16T07:04:14;9.90;99.90
19359;DHT22;9815;52.334;20.890;2023-04-16T07:06:42;9.90;99.90
19359;DHT22;9815;52.334;20.890;2023-04-16T07:09:10;9.80;99.90
19359;DHT22;9815;52.334;20.890;2023-04-16T07:11:38;9.90;99.90
19359;DHT22;9815;52.334;20.890;2023-04-16T07:14:08;9.80;99.90
19359;DHT22;9815;52.334;20.890;2023-04-16T07:16:36;9.80;99.90
19359;DHT22;9815;52.334;20.890;2023-04-16T07:19:04;9.90;99.90
19359;DHT22;9815;52.334;20.890;2023-04-16T07:21:41;10.00;99.90
19359;DHT22;9815;52.334;20.890;2023-04-16T07:24:12;9.80;99.90
19359;DHT22;9815;52.334;20.890;2023-04-16T07:26:41;9.90;99.90
19359;DHT22;9815;52.334;20.890;2023-04-16T07:29:11;9.90;99.90
19359;DHT22;9815;52.334;20.890;2023-04-16T07:31:39;9.80;99.90
19359;DHT22;9815;52.334;20.890;2023-04-16T07:34:07;9.70;99.90
19359;DHT22;9815;52.334;20.890;2023-04-16T07:36:35;9.70;99.90
19359;DHT22;9815;52.334;20.890;2023-04-16T07:39:03;9.60;99.90
19359;DHT22;9815;52.334;20.890;2023-04-16T07:41:31;9.60;99.90
19359;DHT22;9815;52.334;20.890;2023-04-16T07:43:59;9.70;99.90
19359;DHT22;9815;52.334;20.890;2023-04-16T07:46:29;9.60;99.90
19359;DHT22;9815;52.334;20.890;2023-04-16T07:49:12;9.60;99.90
19359;DHT22;9815;52.334;20.890;2023-04-16T07:51:43;9.60;99.90
19359;DHT22;9815;52.334;20.890;2023-04-16T07:54:11;9.50;99.90
19359;DHT22;9815;52.334;20.890;2023-04-16T07:56:39;9.50;99.90
19359;DHT22;9815;52.334;20.890;2023-04-16T07:59:07;9.50;99.90
19359;DHT22;9815;52.334;20.890;2023-04-16T08:01:51;9.60;99.90
19359;DHT22;9815;52.334;20.890;2023-04-16T08:04:20;9.70;99.90
19359;DHT22;9815;52.334;20.890;2023-04-16T08:06:52;9.70;99.90
19359;DHT22;9815;52.334;20.890;2023-04-16T08:09:22;9.80;99.90
19359;DHT22;9815;52.334;20.890;2023-04-16T08:11:50;9.90;99.90
19359;DHT22;9815;52.334;20.890;2023-04-16T08:14:18;9.90;99.90
19359;DHT22;9815;52.334;20.890;2023-04-16T08:16:46;9.90;99.90
19359;DHT22;9815;52.334;20.890;2023-04-16T08:19:19;10.00;99.90
19359;DHT22;9815;52.334;20.890;2023-04-16T08:21:49;9.90;99.90
19359;DHT22;9815;52.334;20.890;2023-04-16T08:24:17;10.00;99.90
19359;DHT22;9815;52.334;20.890;2023-04-16T08:26:46;10.00;99.90
19359;DHT22;9815;52.334;20.890;2023-04-16T08:29:14;10.00;99.90
19359;DHT22;9815;52.334;20.890;2023-04-16T08:31:42;10.00;99.90
19359;DHT22;9815;52.334;20.890;2023-04-16T08:34:10;10.10;99.90
19359;DHT22;9815;52.334;20.890;2023-04-16T08:36:40;10.10;99.90
19359;DHT22;9815;52.334;20.890;2023-04-16T08:39:08;10.10;99.90
19359;DHT22;9815;52.334;20.890;2023-04-16T08:41:40;10.10;99.90
19359;DHT22;9815;52.334;20.890;2023-04-16T08:44:13;10.10;99.90
19359;DHT22;9815;52.334;20.890;2023-04-16T08:46:41;10.00;99.90
19359;DHT22;9815;52.334;20.890;2023-04-16T08:49:15;10.10;99.90
19359;DHT22;9815;52.334;20.890;2023-04-16T08:51:50;10.20;99.90
19359;DHT22;9815;52.334;20.890;2023-04-16T08:54:30;10.30;99.90
19359;DHT22;9815;52.334;20.890;2023-04-16T08:56:59;10.40;99.90
19359;DHT22;9815;52.334;20.890;2023-04-16T08:59:28;10.50;99.90
19359;DHT22;9815;52.334;20.890;2023-04-16T09:02:02;10.40;99.90
19359;DHT22;9815;52.334;20.890;2023-04-16T09:04:35;10.50;99.90
19359;DHT22;9815;52.334;20.890;2023-04-16T09:07:07;10.50;99.90
19359;DHT22;9815;52.334;20.890;2023-04-16T09:09:37;10.60;99.90
19359;DHT22;9815;52.334;20.890;2023-04-16T09:12:06;10.70;99.90
19359;DHT22;9815;52.334;20.890;2023-04-16T09:14:35;10.60;99.90
19359;DHT22;9815;52.334;20.890;2023-04-16T09:17:05;10.70;99.90
19359;DHT22;9815;52.334;20.890;2023-04-16T09:19:33;10.70;99.90
19359;DHT22;9815;52.334;20.890;2023-04-16T09:22:02;10.80;99.90
19359;DHT22;9815;52.334;20.890;2023-04-16T09:24:31;10.80;99.90
19359;DHT22;9815;52.334;20.890;2023-04-16T09:27:00;10.80;99.90
19359;DHT22;9815;52.334;20.890;2023-04-16T09:29:33;10.90;99.90
19359;DHT22;9815;52.334;20.890;2023-04-16T09:32:03;11.10;99.90
19359;DHT22;9815;52.334;20.890;2023-04-16T09:34:32;11.10;99.90
19359;DHT22;9815;52.334;20.890;2023-04-16T09:37:16;11.20;99.90
19359;DHT22;9815;52.334;20.890;2023-04-16T09:39:53;11.30;99.90
19359;DHT22;9815;52.334;20.890;2023-04-16T09:42:23;11.20;99.90
19359;DHT22;9815;52.334;20.890;2023-04-16T09:44:53;11.20;99.90
19359;DHT22;9815;52.334;20.890;2023-04-16T09:47:37;11.30;99.90
19359;DHT22;9815;52.334;20.890;2023-04-16T09:50:06;11.30;99.90
19359;DHT22;9815;52.334;20.890;2023-04-16T09:52:37;11.10;99.90
19359;DHT22;9815;52.334;20.890;2023-04-16T09:55:07;11.20;99.90
19359;DHT22;9815;52.334;20.890;2023-04-16T09:57:36;11.40;99.90
19359;DHT22;9815;52.334;20.890;2023-04-16T10:00:06;11.40;99.90
19359;DHT22;9815;52.334;20.890;2023-04-16T10:02:39;11.40;99.90
19359;DHT22;9815;52.334;20.890;2023-04-16T10:05:08;11.60;99.90
19359;DHT22;9815;52.334;20.890;2023-04-16T10:07:36;11.60;99.90
19359;DHT22;9815;52.334;20.890;2023-04-16T10:10:07;11.70;99.90
19359;DHT22;9815;52.334;20.890;2023-04-16T10:12:35;11.70;99.90
19359;DHT22;9815;52.334;20.890;2023-04-16T10:15:04;11.90;99.90
19359;DHT22;9815;52.334;20.890;2023-04-16T10:17:32;12.00;99.90
19359;DHT22;9815;52.334;20.890;2023-04-16T10:20:01;12.00;99.90
19359;DHT22;9815;52.334;20.890;2023-04-16T10:22:30;12.00;99.90
19359;DHT22;9815;52.334;20.890;2023-04-16T10:24:58;11.90;99.90
19359;DHT22;9815;52.334;20.890;2023-04-16T10:27:28;12.10;99.90
19359;DHT22;9815;52.334;20.890;2023-04-16T10:29:56;12.30;99.90
19359;DHT22;9815;52.334;20.890;2023-04-16T10:32:25;12.30;99.90
19359;DHT22;9815;52.334;20.890;2023-04-16T10:34:57;12.30;99.90
19359;DHT22;9815;52.334;20.890;2023-04-16T10:37:28;12.30;99.90
19359;DHT22;9815;52.334;20.890;2023-04-16T10:39:57;12.30;99.90
19359;DHT22;9815;52.334;20.890;2023-04-16T10:42:27;12.40;99.90
19359;DHT22;9815;52.334;20.890;2023-04-16T10:44:58;12.40;99.90
19359;DHT22;9815;52.334;20.890;2023-04-16T10:47:28;12.30;99.90
19359;DHT22;9815;52.334;20.890;2023-04-16T10:49:57;12.40;99.90
19359;DHT22;9815;52.334;20.890;2023-04-16T10:52:28;12.40;99.90
19359;DHT22;9815;52.334;20.890;2023-04-16T10:54:58;12.20;99.90
19359;DHT22;9815;52.334;20.890;2023-04-16T10:57:28;12.20;99.90
19359;DHT22;9815;52.334;20.890;2023-04-16T10:59:56;12.30;99.90
19359;DHT22;9815;52.334;20.890;2023-04-16T11:02:27;12.40;99.90
19359;DHT22;9815;52.334;20.890;2023-04-16T11:04:56;12.20;99.90
19359;DHT22;9815;52.334;20.890;2023-04-16T11:07:32;12.20;99.90
19359;DHT22;9815;52.334;20.890;2023-04-16T11:10:03;12.50;99.90
19359;DHT22;9815;52.334;20.890;2023-04-16T11:12:35;12.50;99.90
19359;DHT22;9815;52.334;20.890;2023-04-16T11:15:05;12.40;99.90
19359;DHT22;9815;52.334;20.890;2023-04-16T11:17:36;12.60;99.90
19359;DHT22;9815;52.334;20.890;2023-04-16T11:20:07;12.80;99.90
19359;DHT22;9815;52.334;20.890;2023-04-16T11:22:46;12.90;99.90
19359;DHT22;9815;52.334;20.890;2023-04-16T11:25:18;13.30;99.90
19359;DHT22;9815;52.334;20.890;2023-04-16T11:27:49;13.50;99.90
19359;DHT22;9815;52.334;20.890;2023-04-16T11:30:26;13.30;99.90
19359;DHT22;9815;52.334;20.890;2023-04-16T11:32:54;13.30;99.90
19359;DHT22;9815;52.334;20.890;2023-04-16T11:35:23;13.40;99.90
19359;DHT22;9815;52.334;20.890;2023-04-16T11:37:55;13.50;99.90
19359;DHT22;9815;52.334;20.890;2023-04-16T11:40:23;13.60;99.90
19359;DHT22;9815;52.334;20.890;2023-04-16T11:42:53;13.70;99.90
19359;DHT22;9815;52.334;20.890;2023-04-16T11:45:22;13.80;99.90
19359;DHT22;9815;52.334;20.890;2023-04-16T11:47:52;13.80;99.90
19359;DHT22;9815;52.334;20.890;2023-04-16T11:50:23;13.90;99.90
19359;DHT22;9815;52.334;20.890;2023-04-16T11:52:53;13.80;99.90
19359;DHT22;9815;52.334;20.890;2023-04-16T11:55:22;13.70;99.90
19359;DHT22;9815;52.334;20.890;2023-04-16T11:57:50;13.40;99.90
19359;DHT22;9815;52.334;20.890;2023-04-16T12:00:20;13.50;99.90
19359;DHT22;9815;52.334;20.890;2023-04-16T12:02:51;13.40;99.90
19359;DHT22;9815;52.334;20.890;2023-04-16T12:05:29;13.40;99.90
19359;DHT22;9815;52.334;20.890;2023-04-16T12:07:58;13.30;99.90
19359;DHT22;9815;52.334;20.890;2023-04-16T12:10:27;13.30;99.90
19359;DHT22;9815;52.334;20.890;2023-04-16T12:13:09;13.30;99.90
19359;DHT22;9815;52.334;20.890;2023-04-16T12:15:46;13.10;99.90
19359;DHT22;9815;52.334;20.890;2023-04-16T12:18:15;13.00;99.90
19359;DHT22;9815;52.334;20.890;2023-04-16T12:20:43;13.20;99.90
19359;DHT22;9815;52.334;20.890;2023-04-16T12:23:22;13.10;99.90
19359;DHT22;9815;52.334;20.890;2023-04-16T12:25:50;13.00;99.90
19359;DHT22;9815;52.334;20.890;2023-04-16T12:28:29;12.80;99.90
19359;DHT22;9815;52.334;20.890;2023-04-16T12:30:59;12.80;99.90
19359;DHT22;9815;52.334;20.890;2023-04-16T12:33:27;12.90;99.90
19359;DHT22;9815;52.334;20.890;2023-04-16T12:35:56;13.00;99.90
19359;DHT22;9815;52.334;20.890;2023-04-16T12:38:25;13.00;99.90
19359;DHT22;9815;52.334;20.890;2023-04-16T12:40:53;13.00;99.90
19359;DHT22;9815;52.334;20.890;2023-04-16T12:43:23;13.50;99.90
19359;DHT22;9815;52.334;20.890;2023-04-16T12:45:51;14.30;99.90
19359;DHT22;9815;52.334;20.890;2023-04-16T12:48:21;14.20;99.90
19359;DHT22;9815;52.334;20.890;2023-04-16T12:50:51;14.00;99.90
19359;DHT22;9815;52.334;20.890;2023-04-16T12:53:19;14.00;99.90
19359;DHT22;9815;52.334;20.890;2023-04-16T12:55:47;14.20;99.70
19359;DHT22;9815;52.334;20.890;2023-04-16T12:58:16;14.20;99.60
19359;DHT22;9815;52.334;20.890;2023-04-16T13:00:44;14.20;99.90
19359;DHT22;9815;52.334;20.890;2023-04-16T13:03:12;14.00;99.90
19359;DHT22;9815;52.334;20.890;2023-04-16T13:05:41;14.10;97.40
19359;DHT22;9815;52.334;20.890;2023-04-16T13:08:09;14.60;94.90
19359;DHT22;9815;52.334;20.890;2023-04-16T13:10:37;15.00;83.00
19359;DHT22;9815;52.334;20.890;2023-04-16T13:13:05;15.20;91.60
19359;DHT22;9815;52.334;20.890;2023-04-16T13:15:33;15.50;77.60
19359;DHT22;9815;52.334;20.890;2023-04-16T13:18:09;15.80;69.10
19359;DHT22;9815;52.334;20.890;2023-04-16T13:20:38;15.70;78.00
19359;DHT22;9815;52.334;20.890;2023-04-16T13:23:08;15.80;82.90
19359;DHT22;9815;52.334;20.890;2023-04-16T13:25:36;15.50;79.60
19359;DHT22;9815;52.334;20.890;2023-04-16T13:28:04;15.40;81.70
19359;DHT22;9815;52.334;20.890;2023-04-16T13:30:33;15.10;89.90
19359;DHT22;9815;52.334;20.890;2023-04-16T13:33:01;14.80;93.80
19359;DHT22;9815;52.334;20.890;2023-04-16T13:35:30;14.50;93.50
19359;DHT22;9815;52.334;20.890;2023-04-16T13:37:58;14.40;97.30
19359;DHT22;9815;52.334;20.890;2023-04-16T13:40:27;14.10;97.10
19359;DHT22;9815;52.334;20.890;2023-04-16T13:42:55;14.00;98.00
19359;DHT22;9815;52.334;20.890;2023-04-16T13:45:23;13.70;99.90
19359;DHT22;9815;52.334;20.890;2023-04-16T13:47:55;13.70;99.90
19359;DHT22;9815;52.334;20.890;2023-04-16T13:50:30;13.80;99.10
19359;DHT22;9815;52.334;20.890;2023-04-16T13:52:58;13.70;99.90
19359;DHT22;9815;52.334;20.890;2023-04-16T13:55:29;13.80;99.90
19359;DHT22;9815;52.334;20.890;2023-04-16T13:57:57;14.40;97.20
19359;DHT22;9815;52.334;20.890;2023-04-16T14:00:26;14.50;94.70
19359;DHT22;9815;52.334;20.890;2023-04-16T14:02:54;15.10;88.80
19359;DHT22;9815;52.334;20.890;2023-04-16T14:05:22;15.50;75.60
19359;DHT22;9815;52.334;20.890;2023-04-16T14:07:53;15.60;68.70
19359;DHT22;9815;52.334;20.890;2023-04-16T14:10:21;15.70;72.90
19359;DHT22;9815;52.334;20.890;2023-04-16T14:12:50;15.70;75.00
19359;DHT22;9815;52.334;20.890;2023-04-16T14:15:19;15.60;81.50
19359;DHT22;9815;52.334;20.890;2023-04-16T14:17:47;15.20;83.20
19359;DHT22;9815;52.334;20.890;2023-04-16T14:20:15;15.30;79.50
19359;DHT22;9815;52.334;20.890;2023-04-16T14:22:43;15.30;76.10
19359;DHT22;9815;52.334;20.890;2023-04-16T14:25:12;15.20;79.80
19359;DHT22;9815;52.334;20.890;2023-04-16T14:27:40;15.10;86.60
19359;DHT22;9815;52.334;20.890;2023-04-16T14:30:10;15.20;90.70
19359;DHT22;9815;52.334;20.890;2023-04-16T14:32:38;15.10;89.10
19359;DHT22;9815;52.334;20.890;2023-04-16T14:35:07;15.40;90.50
19359;DHT22;9815;52.334;20.890;2023-04-16T14:37:35;15.30;78.20
19359;DHT22;9815;52.334;20.890;2023-04-16T14:40:09;14.50;88.40
19359;DHT22;9815;52.334;20.890;2023-04-16T14:42:39;14.30;92.60
19359;DHT22;9815;52.334;20.890;2023-04-16T14:45:09;14.20;94.90
19359;DHT22;9815;52.334;20.890;2023-04-16T14:47:37;13.90;99.90
19359;DHT22;9815;52.334;20.890;2023-04-16T14:50:12;13.50;99.90
19359;DHT22;9815;52.334;20.890;2023-04-16T14:52:40;13.40;99.90
19359;DHT22;9815;52.334;20.890;2023-04-16T14:55:08;13.80;99.90
19359;DHT22;9815;52.334;20.890;2023-04-16T14:57:36;13.90;99.90
19359;DHT22;9815;52.334;20.890;2023-04-16T15:00:06;13.90;97.90
19359;DHT22;9815;52.334;20.890;2023-04-16T15:02:37;13.80;99.90
19359;DHT22;9815;52.334;20.890;2023-04-16T15:05:06;13.80;98.80
19359;DHT22;9815;52.334;20.890;2023-04-16T15:07:36;13.80;97.00
19359;DHT22;9815;52.334;20.890;2023-04-16T15:10:05;13.70;98.50
19359;DHT22;9815;52.334;20.890;2023-04-16T15:12:33;13.80;97.60
19359;DHT22;9815;52.334;20.890;2023-04-16T15:15:02;13.90;99.40
19359;DHT22;9815;52.334;20.890;2023-04-16T15:17:30;13.90;99.60
19359;DHT22;9815;52.334;20.890;2023-04-16T15:19:59;13.90;97.20
19359;DHT22;9815;52.334;20.890;2023-04-16T15:22:27;13.70;99.90
19359;DHT22;9815;52.334;20.890;2023-04-16T15:24:55;13.50;99.90
19359;DHT22;9815;52.334;20.890;2023-04-16T15:27:23;13.60;99.90
19359;DHT22;9815;52.334;20.890;2023-04-16T15:29:51;13.60;99.90
19359;DHT22;9815;52.334;20.890;2023-04-16T15:32:19;13.50;99.90
19359;DHT22;9815;52.334;20.890;2023-04-16T15:34:47;13.70;99.90
19359;DHT22;9815;52.334;20.890;2023-04-16T15:37:17;13.70;99.90
19359;DHT22;9815;52.334;20.890;2023-04-16T15:39:45;13.60;99.90
19359;DHT22;9815;52.334;20.890;2023-04-16T15:42:13;13.60;99.90
19359;DHT22;9815;52.334;20.890;2023-04-16T15:44:41;13.60;99.90
19359;DHT22;9815;52.334;20.890;2023-04-16T15:47:09;13.50;99.90
19359;DHT22;9815;52.334;20.890;2023-04-16T15:49:37;13.50;99.90
19359;DHT22;9815;52.334;20.890;2023-04-16T15:52:05;13.40;99.90
19359;DHT22;9815;52.334;20.890;2023-04-16T15:54:35;13.40;99.90